sensor_id;sensor_type;location;lat;lon;timestamp;P1;durP1;ratioP1;P2;durP2;ratioP2
24813;SDS011;12904;50.088;11.414;2024-01-07T00:01:45;10.70;;;7.85;;
24813;SDS011;12904;50.088;11.414;2024-01-07T00:04:14;10.70;;;6.85;;
24813;SDS011;12904;50.088;11.414;2024-01-07T00:06:40;9.13;;;6.53;;
24813;SDS011;12904;50.088;11.414;2024-01-07T00:09:06;8.75;;;7.05;;
24813;SDS011;12904;50.088;11.414;2024-01-07T00:11:31;10.35;;;7.55;;
24813;SDS011;12904;50.088;11.414;2024-01-07T00:13:57;10.93;;;7.93;;
24813;SDS011;12904;50.088;11.414;2024-01-07T00:16:23;9.98;;;7.60;;
24813;SDS011;12904;50.088;11.414;2024-01-07T00:18:49;12.05;;;9.32;;
24813;SDS011;12904;50.088;11.414;2024-01-07T00:21:14;9.30;;;7.25;;
24813;SDS011;12904;50.088;11.414;2024-01-07T00:23:40;12.65;;;8.57;;
24813;SDS011;12904;50.088;11.414;2024-01-07T00:26:05;9.32;;;7.53;;
24813;SDS011;12904;50.088;11.414;2024-01-07T00:28:32;12.13;;;8.20;;
24813;SDS011;12904;50.088;11.414;2024-01-07T00:30:57;11.60;;;7.30;;
24813;SDS011;12904;50.088;11.414;2024-01-07T00:33:23;8.20;;;6.72;;
24813;SDS011;12904;50.088;11.414;2024-01-07T00:35:48;8.82;;;5.45;;
24813;SDS011;12904;50.088;11.414;2024-01-07T00:38:14;8.70;;;7.07;;
24813;SDS011;12904;50.088;11.414;2024-01-07T00:40:40;8.45;;;6.25;;
24813;SDS011;12904;50.088;11.414;2024-01-07T00:43:05;8.65;;;6.93;;
24813;SDS011;12904;50.088;11.414;2024-01-07T00:45:31;8.93;;;6.90;;
24813;SDS011;12904;50.088;11.414;2024-01-07T00:47:56;8.98;;;7.43;;
24813;SDS011;12904;50.088;11.414;2024-01-07T00:50:22;7.75;;;6.25;;
24813;SDS011;12904;50.088;11.414;2024-01-07T00:52:48;8.90;;;7.47;;
24813;SDS011;12904;50.088;11.414;2024-01-07T00:55:13;8.75;;;6.35;;
24813;SDS011;12904;50.088;11.414;2024-01-07T00:57:39;9.35;;;7.05;;
24813;SDS011;12904;50.088;11.414;2024-01-07T01:00:05;6.80;;;5.10;;
24813;SDS011;12904;50.088;11.414;2024-01-07T01:02:31;8.88;;;6.55;;
24813;SDS011;12904;50.088;11.414;2024-01-07T01:04:57;8.70;;;6.57;;
24813;SDS011;12904;50.088;11.414;2024-01-07T01:07:23;9.82;;;6.53;;
24813;SDS011;12904;50.088;11.414;2024-01-07T01:09:48;8.57;;;6.53;;
24813;SDS011;12904;50.088;11.414;2024-01-07T01:12:14;9.90;;;7.55;;
24813;SDS011;12904;50.088;11.414;2024-01-07T01:14:40;8.45;;;6.53;;
24813;SDS011;12904;50.088;11.414;2024-01-07T01:17:06;7.13;;;5.80;;
24813;SDS011;12904;50.088;11.414;2024-01-07T01:19:32;8.20;;;6.82;;
24813;SDS011;12904;50.088;11.414;2024-01-07T01:21:57;8.23;;;5.88;;
24813;SDS011;12904;50.088;11.414;2024-01-07T01:24:23;10.68;;;7.30;;
24813;SDS011;12904;50.088;11.414;2024-01-07T01:26:49;8.95;;;6.57;;
24813;SDS011;12904;50.088;11.414;2024-01-07T01:29:14;10.00;;;7.45;;
24813;SDS011;12904;50.088;11.414;2024-01-07T01:31:40;10.38;;;7.53;;
24813;SDS011;12904;50.088;11.414;2024-01-07T01:34:05;9.85;;;6.65;;
24813;SDS011;12904;50.088;11.414;2024-01-07T01:36:31;10.70;;;6.75;;
24813;SDS011;12904;50.088;11.414;2024-01-07T01:38:57;9.30;;;7.45;;
24813;SDS011;12904;50.088;11.414;2024-01-07T01:41:23;10.68;;;7.22;;
24813;SDS011;12904;50.088;11.414;2024-01-07T01:43:48;12.63;;;8.25;;
24813;SDS011;12904;50.088;11.414;2024-01-07T01:46:14;10.68;;;8.07;;
24813;SDS011;12904;50.088;11.414;2024-01-07T01:48:40;9.45;;;6.30;;
24813;SDS011;12904;50.088;11.414;2024-01-07T01:51:07;11.80;;;8.50;;
24813;SDS011;12904;50.088;11.414;2024-01-07T01:53:33;13.20;;;9.55;;
24813;SDS011;12904;50.088;11.414;2024-01-07T01:55:59;11.75;;;8.23;;
24813;SDS011;12904;50.088;11.414;2024-01-07T01:58:29;10.35;;;6.97;;
24813;SDS011;12904;50.088;11.414;2024-01-07T02:00:55;12.13;;;8.30;;
24813;SDS011;12904;50.088;11.414;2024-01-07T02:03:21;10.68;;;8.23;;
24813;SDS011;12904;50.088;11.414;2024-01-07T02:05:48;9.63;;;7.53;;
24813;SDS011;12904;50.088;11.414;2024-01-07T02:08:15;13.63;;;8.13;;
24813;SDS011;12904;50.088;11.414;2024-01-07T02:10:42;11.98;;;7.97;;
24813;SDS011;12904;50.088;11.414;2024-01-07T02:13:08;12.02;;;7.90;;
24813;SDS011;12904;50.088;11.414;2024-01-07T02:15:33;13.20;;;7.75;;
24813;SDS011;12904;50.088;11.414;2024-01-07T02:17:59;9.23;;;6.82;;
24813;SDS011;12904;50.088;11.414;2024-01-07T02:20:25;11.52;;;7.88;;
24813;SDS011;12904;50.088;11.414;2024-01-07T02:22:51;10.55;;;6.95;;
24813;SDS011;12904;50.088;11.414;2024-01-07T02:25:17;10.07;;;7.20;;
24813;SDS011;12904;50.088;11.414;2024-01-07T02:27:42;10.85;;;6.57;;
24813;SDS011;12904;50.088;11.414;2024-01-07T02:30:08;9.57;;;7.00;;
24813;SDS011;12904;50.088;11.414;2024-01-07T02:32:34;8.23;;;6.22;;
24813;SDS011;12904;50.088;11.414;2024-01-07T02:35:01;9.93;;;7.70;;
24813;SDS011;12904;50.088;11.414;2024-01-07T02:37:27;9.98;;;7.80;;
24813;SDS011;12904;50.088;11.414;2024-01-07T02:39:52;10.18;;;7.68;;
24813;SDS011;12904;50.088;11.414;2024-01-07T02:42:18;7.93;;;6.30;;
24813;SDS011;12904;50.088;11.414;2024-01-07T02:44:43;11.00;;;6.78;;
24813;SDS011;12904;50.088;11.414;2024-01-07T02:47:09;10.98;;;6.68;;
24813;SDS011;12904;50.088;11.414;2024-01-07T02:49:35;8.65;;;6.32;;
24813;SDS011;12904;50.088;11.414;2024-01-07T02:52:00;8.88;;;5.60;;
24813;SDS011;12904;50.088;11.414;2024-01-07T02:54:26;10.38;;;7.07;;
24813;SDS011;12904;50.088;11.414;2024-01-07T02:56:51;10.82;;;7.13;;
24813;SDS011;12904;50.088;11.414;2024-01-07T02:59:17;8.32;;;6.63;;
24813;SDS011;12904;50.088;11.414;2024-01-07T03:01:43;10.30;;;7.80;;
24813;SDS011;12904;50.088;11.414;2024-01-07T03:04:09;7.70;;;6.28;;
24813;SDS011;12904;50.088;11.414;2024-01-07T03:06:36;9.95;;;5.95;;
24813;SDS011;12904;50.088;11.414;2024-01-07T03:09:01;6.53;;;5.28;;
24813;SDS011;12904;50.088;11.414;2024-01-07T03:11:28;8.07;;;6.00;;
24813;SDS011;12904;50.088;11.414;2024-01-07T03:13:54;9.93;;;6.53;;
24813;SDS011;12904;50.088;11.414;2024-01-07T03:16:21;7.18;;;5.78;;
24813;SDS011;12904;50.088;11.414;2024-01-07T03:18:47;7.38;;;5.82;;
24813;SDS011;12904;50.088;11.414;2024-01-07T03:21:16;9.38;;;6.18;;
24813;SDS011;12904;50.088;11.414;2024-01-07T03:23:46;10.00;;;5.80;;
24813;SDS011;12904;50.088;11.414;2024-01-07T03:26:12;7.50;;;5.85;;
24813;SDS011;12904;50.088;11.414;2024-01-07T03:28:38;7.07;;;5.53;;
24813;SDS011;12904;50.088;11.414;2024-01-07T03:31:08;8.82;;;5.85;;
24813;SDS011;12904;50.088;11.414;2024-01-07T03:33:34;9.05;;;5.78;;
24813;SDS011;12904;50.088;11.414;2024-01-07T03:36:03;7.55;;;5.07;;
24813;SDS011;12904;50.088;11.414;2024-01-07T03:38:36;7.93;;;4.72;;
24813;SDS011;12904;50.088;11.414;2024-01-07T03:41:01;8.38;;;5.88;;
24813;SDS011;12904;50.088;11.414;2024-01-07T03:43:27;7.43;;;4.97;;
24813;SDS011;12904;50.088;11.414;2024-01-07T03:45:53;7.82;;;6.10;;
24813;SDS011;12904;50.088;11.414;2024-01-07T03:48:19;8.55;;;5.78;;
24813;SDS011;12904;50.088;11.414;2024-01-07T03:50:45;7.68;;;5.68;;
24813;SDS011;12904;50.088;11.414;2024-01-07T03:53:10;9.38;;;6.22;;
24813;SDS011;12904;50.088;11.414;2024-01-07T03:55:36;9.82;;;6.85;;
24813;SDS011;12904;50.088;11.414;2024-01-07T03:58:02;10.02;;;6.43;;
24813;SDS011;12904;50.088;11.414;2024-01-07T04:00:28;10.70;;;7.50;;
24813;SDS011;12904;50.088;11.414;2024-01-07T04:02:53;11.32;;;6.45;;
24813;SDS011;12904;50.088;11.414;2024-01-07T04:05:19;8.27;;;6.05;;
24813;SDS011;12904;50.088;11.414;2024-01-07T04:07:45;8.25;;;6.43;;
24813;SDS011;12904;50.088;11.414;2024-01-07T04:10:10;8.15;;;6.60;;
24813;SDS011;12904;50.088;11.414;2024-01-07T04:12:36;9.70;;;7.35;;
24813;SDS011;12904;50.088;11.414;2024-01-07T04:15:02;9.93;;;6.65;;
24813;SDS011;12904;50.088;11.414;2024-01-07T04:17:28;10.02;;;7.35;;
24813;SDS011;12904;50.088;11.414;2024-01-07T04:19:54;8.35;;;6.30;;
24813;SDS011;12904;50.088;11.414;2024-01-07T04:22:20;10.20;;;7.22;;
24813;SDS011;12904;50.088;11.414;2024-01-07T04:24:46;9.48;;;6.40;;
24813;SDS011;12904;50.088;11.414;2024-01-07T04:27:11;9.60;;;7.63;;
24813;SDS011;12904;50.088;11.414;2024-01-07T04:29:37;13.43;;;7.70;;
24813;SDS011;12904;50.088;11.414;2024-01-07T04:32:03;11.40;;;8.23;;
24813;SDS011;12904;50.088;11.414;2024-01-07T04:34:28;12.35;;;8.48;;
24813;SDS011;12904;50.088;11.414;2024-01-07T04:36:54;11.18;;;7.97;;
24813;SDS011;12904;50.088;11.414;2024-01-07T04:39:20;14.35;;;8.63;;
24813;SDS011;12904;50.088;11.414;2024-01-07T04:41:45;11.38;;;7.05;;
24813;SDS011;12904;50.088;11.414;2024-01-07T04:44:11;11.52;;;8.40;;
24813;SDS011;12904;50.088;11.414;2024-01-07T04:46:37;12.63;;;9.90;;
24813;SDS011;12904;50.088;11.414;2024-01-07T04:49:04;12.27;;;8.85;;
24813;SDS011;12904;50.088;11.414;2024-01-07T04:51:30;14.43;;;9.55;;
24813;SDS011;12904;50.088;11.414;2024-01-07T04:53:56;15.43;;;10.07;;
24813;SDS011;12904;50.088;11.414;2024-01-07T04:56:22;13.52;;;9.85;;
24813;SDS011;12904;50.088;11.414;2024-01-07T04:58:48;11.57;;;9.43;;
24813;SDS011;12904;50.088;11.414;2024-01-07T05:01:13;14.40;;;9.55;;
24813;SDS011;12904;50.088;11.414;2024-01-07T05:03:39;14.05;;;8.98;;
24813;SDS011;12904;50.088;11.414;2024-01-07T05:06:04;16.67;;;10.20;;
24813;SDS011;12904;50.088;11.414;2024-01-07T05:08:30;16.08;;;10.75;;
24813;SDS011;12904;50.088;11.414;2024-01-07T05:10:56;14.65;;;8.85;;
24813;SDS011;12904;50.088;11.414;2024-01-07T05:13:22;13.52;;;9.68;;
24813;SDS011;12904;50.088;11.414;2024-01-07T05:15:47;14.32;;;9.52;;
24813;SDS011;12904;50.088;11.414;2024-01-07T05:18:20;15.30;;;10.05;;
24813;SDS011;12904;50.088;11.414;2024-01-07T05:20:49;12.85;;;9.07;;
24813;SDS011;12904;50.088;11.414;2024-01-07T05:23:15;15.75;;;10.27;;
24813;SDS011;12904;50.088;11.414;2024-01-07T05:25:44;13.60;;;10.55;;
24813;SDS011;12904;50.088;11.414;2024-01-07T05:28:13;14.07;;;10.27;;
24813;SDS011;12904;50.088;11.414;2024-01-07T05:30:39;17.55;;;10.57;;
24813;SDS011;12904;50.088;11.414;2024-01-07T05:33:06;15.23;;;10.25;;
24813;SDS011;12904;50.088;11.414;2024-01-07T05:35:31;16.02;;;11.43;;
24813;SDS011;12904;50.088;11.414;2024-01-07T05:37:57;15.57;;;11.32;;
24813;SDS011;12904;50.088;11.414;2024-01-07T05:40:23;16.77;;;11.60;;
24813;SDS011;12904;50.088;11.414;2024-01-07T05:42:49;15.10;;;11.27;;
24813;SDS011;12904;50.088;11.414;2024-01-07T05:45:14;17.17;;;11.88;;
24813;SDS011;12904;50.088;11.414;2024-01-07T05:47:40;12.60;;;9.50;;
24813;SDS011;12904;50.088;11.414;2024-01-07T05:50:06;14.75;;;11.05;;
24813;SDS011;12904;50.088;11.414;2024-01-07T05:52:32;13.95;;;10.15;;
24813;SDS011;12904;50.088;11.414;2024-01-07T05:54:58;15.13;;;10.43;;
24813;SDS011;12904;50.088;11.414;2024-01-07T05:57:24;16.08;;;12.00;;
24813;SDS011;12904;50.088;11.414;2024-01-07T05:59:50;17.90;;;10.32;;
24813;SDS011;12904;50.088;11.414;2024-01-07T06:02:16;14.63;;;10.63;;
24813;SDS011;12904;50.088;11.414;2024-01-07T06:04:43;18.55;;;13.38;;
24813;SDS011;12904;50.088;11.414;2024-01-07T06:07:08;13.30;;;10.13;;
24813;SDS011;12904;50.088;11.414;2024-01-07T06:09:34;14.70;;;10.20;;
24813;SDS011;12904;50.088;11.414;2024-01-07T06:12:00;14.98;;;10.98;;
24813;SDS011;12904;50.088;11.414;2024-01-07T06:14:26;13.18;;;10.50;;
24813;SDS011;12904;50.088;11.414;2024-01-07T06:16:52;12.77;;;10.23;;
24813;SDS011;12904;50.088;11.414;2024-01-07T06:19:17;18.92;;;11.60;;
24813;SDS011;12904;50.088;11.414;2024-01-07T06:21:43;14.77;;;10.52;;
24813;SDS011;12904;50.088;11.414;2024-01-07T06:24:09;14.18;;;9.85;;
24813;SDS011;12904;50.088;11.414;2024-01-07T06:26:35;13.02;;;10.32;;
24813;SDS011;12904;50.088;11.414;2024-01-07T06:29:01;18.08;;;10.98;;
24813;SDS011;12904;50.088;11.414;2024-01-07T06:31:27;17.52;;;10.30;;
24813;SDS011;12904;50.088;11.414;2024-01-07T06:33:52;17.83;;;11.38;;
24813;SDS011;12904;50.088;11.414;2024-01-07T06:36:20;17.63;;;11.30;;
24813;SDS011;12904;50.088;11.414;2024-01-07T06:38:46;16.92;;;12.43;;
24813;SDS011;12904;50.088;11.414;2024-01-07T06:41:13;14.00;;;9.55;;
24813;SDS011;12904;50.088;11.414;2024-01-07T06:43:39;23.95;;;13.82;;
24813;SDS011;12904;50.088;11.414;2024-01-07T06:46:05;30.27;;;16.25;;
24813;SDS011;12904;50.088;11.414;2024-01-07T06:48:30;15.32;;;12.05;;
24813;SDS011;12904;50.088;11.414;2024-01-07T06:50:56;17.90;;;10.60;;
24813;SDS011;12904;50.088;11.414;2024-01-07T06:53:22;15.63;;;11.00;;
24813;SDS011;12904;50.088;11.414;2024-01-07T06:55:48;15.55;;;10.48;;
24813;SDS011;12904;50.088;11.414;2024-01-07T06:58:14;16.73;;;9.50;;
24813;SDS011;12904;50.088;11.414;2024-01-07T07:00:39;17.95;;;10.90;;
24813;SDS011;12904;50.088;11.414;2024-01-07T07:03:05;10.32;;;7.63;;
24813;SDS011;12904;50.088;11.414;2024-01-07T07:05:31;17.05;;;11.52;;
24813;SDS011;12904;50.088;11.414;2024-01-07T07:07:57;15.75;;;12.48;;
24813;SDS011;12904;50.088;11.414;2024-01-07T07:10:23;14.30;;;8.55;;
24813;SDS011;12904;50.088;11.414;2024-01-07T07:12:49;17.15;;;8.68;;
24813;SDS011;12904;50.088;11.414;2024-01-07T07:15:15;15.15;;;10.02;;
24813;SDS011;12904;50.088;11.414;2024-01-07T07:17:42;15.05;;;9.55;;
24813;SDS011;12904;50.088;11.414;2024-01-07T07:20:08;30.80;;;16.83;;
24813;SDS011;12904;50.088;11.414;2024-01-07T07:22:34;25.88;;;16.50;;
24813;SDS011;12904;50.088;11.414;2024-01-07T07:25:00;18.30;;;13.35;;
24813;SDS011;12904;50.088;11.414;2024-01-07T07:27:25;17.67;;;13.45;;
24813;SDS011;12904;50.088;11.414;2024-01-07T07:29:51;15.45;;;11.35;;
24813;SDS011;12904;50.088;11.414;2024-01-07T07:32:17;17.45;;;12.60;;
24813;SDS011;12904;50.088;11.414;2024-01-07T07:34:43;17.60;;;13.25;;
24813;SDS011;12904;50.088;11.414;2024-01-07T07:37:08;18.77;;;13.25;;
24813;SDS011;12904;50.088;11.414;2024-01-07T07:39:35;19.75;;;13.88;;
24813;SDS011;12904;50.088;11.414;2024-01-07T07:42:00;20.00;;;11.85;;
24813;SDS011;12904;50.088;11.414;2024-01-07T07:44:26;36.38;;;19.00;;
24813;SDS011;12904;50.088;11.414;2024-01-07T07:46:51;20.00;;;14.85;;
24813;SDS011;12904;50.088;11.414;2024-01-07T07:49:17;23.52;;;15.07;;
24813;SDS011;12904;50.088;11.414;2024-01-07T07:51:43;24.92;;;16.40;;
24813;SDS011;12904;50.088;11.414;2024-01-07T07:54:09;23.35;;;15.10;;
24813;SDS011;12904;50.088;11.414;2024-01-07T07:56:35;26.80;;;17.52;;
24813;SDS011;12904;50.088;11.414;2024-01-07T07:59:01;23.02;;;13.40;;
24813;SDS011;12904;50.088;11.414;2024-01-07T08:01:27;20.45;;;13.35;;
24813;SDS011;12904;50.088;11.414;2024-01-07T08:03:53;16.35;;;12.75;;
24813;SDS011;12904;50.088;11.414;2024-01-07T08:06:19;17.65;;;12.25;;
24813;SDS011;12904;50.088;11.414;2024-01-07T08:08:44;13.07;;;11.30;;
24813;SDS011;12904;50.088;11.414;2024-01-07T08:11:10;19.85;;;10.25;;
24813;SDS011;12904;50.088;11.414;2024-01-07T08:13:36;18.98;;;12.52;;
24813;SDS011;12904;50.088;11.414;2024-01-07T08:16:03;15.60;;;12.32;;
24813;SDS011;12904;50.088;11.414;2024-01-07T08:18:30;16.25;;;12.35;;
24813;SDS011;12904;50.088;11.414;2024-01-07T08:20:56;16.35;;;12.75;;
24813;SDS011;12904;50.088;11.414;2024-01-07T08:23:22;19.85;;;13.65;;
24813;SDS011;12904;50.088;11.414;2024-01-07T08:25:49;20.60;;;13.13;;
24813;SDS011;12904;50.088;11.414;2024-01-07T08:28:16;18.30;;;12.38;;
24813;SDS011;12904;50.088;11.414;2024-01-07T08:30:42;21.45;;;14.50;;
24813;SDS011;12904;50.088;11.414;2024-01-07T08:33:08;18.92;;;13.93;;
24813;SDS011;12904;50.088;11.414;2024-01-07T08:35:33;21.15;;;14.90;;
24813;SDS011;12904;50.088;11.414;2024-01-07T08:37:59;18.95;;;13.10;;
24813;SDS011;12904;50.088;11.414;2024-01-07T08:40:24;17.73;;;12.13;;
24813;SDS011;12904;50.088;11.414;2024-01-07T08:42:50;17.25;;;10.95;;
24813;SDS011;12904;50.088;11.414;2024-01-07T08:45:15;15.05;;;11.27;;
24813;SDS011;12904;50.088;11.414;2024-01-07T08:47:41;19.85;;;13.75;;
24813;SDS011;12904;50.088;11.414;2024-01-07T08:50:07;16.50;;;11.70;;
24813;SDS011;12904;50.088;11.414;2024-01-07T08:52:33;18.98;;;13.00;;
24813;SDS011;12904;50.088;11.414;2024-01-07T08:55:00;12.20;;;8.10;;
24813;SDS011;12904;50.088;11.414;2024-01-07T08:57:27;15.00;;;10.75;;
24813;SDS011;12904;50.088;11.414;2024-01-07T08:59:53;15.27;;;9.05;;
24813;SDS011;12904;50.088;11.414;2024-01-07T09:02:18;19.27;;;12.85;;
24813;SDS011;12904;50.088;11.414;2024-01-07T09:04:44;16.13;;;11.73;;
24813;SDS011;12904;50.088;11.414;2024-01-07T09:07:10;24.30;;;13.65;;
24813;SDS011;12904;50.088;11.414;2024-01-07T09:09:35;18.13;;;11.70;;
24813;SDS011;12904;50.088;11.414;2024-01-07T09:12:01;16.85;;;11.35;;
24813;SDS011;12904;50.088;11.414;2024-01-07T09:14:28;16.52;;;11.38;;
24813;SDS011;12904;50.088;11.414;2024-01-07T09:16:54;11.63;;;7.68;;
24813;SDS011;12904;50.088;11.414;2024-01-07T09:19:20;14.25;;;10.57;;
24813;SDS011;12904;50.088;11.414;2024-01-07T09:21:46;18.67;;;12.52;;
24813;SDS011;12904;50.088;11.414;2024-01-07T09:24:12;15.50;;;12.25;;
24813;SDS011;12904;50.088;11.414;2024-01-07T09:26:37;20.42;;;11.68;;
24813;SDS011;12904;50.088;11.414;2024-01-07T09:29:03;14.68;;;10.63;;
24813;SDS011;12904;50.088;11.414;2024-01-07T09:31:28;16.60;;;12.30;;
24813;SDS011;12904;50.088;11.414;2024-01-07T09:33:54;17.98;;;11.00;;
24813;SDS011;12904;50.088;11.414;2024-01-07T09:36:20;13.30;;;9.45;;
24813;SDS011;12904;50.088;11.414;2024-01-07T09:38:45;17.35;;;11.63;;
24813;SDS011;12904;50.088;11.414;2024-01-07T09:41:11;17.83;;;11.45;;
24813;SDS011;12904;50.088;11.414;2024-01-07T09:43:37;19.67;;;11.80;;
24813;SDS011;12904;50.088;11.414;2024-01-07T09:46:02;20.25;;;11.07;;
24813;SDS011;12904;50.088;11.414;2024-01-07T09:48:28;23.33;;;11.40;;
24813;SDS011;12904;50.088;11.414;2024-01-07T09:50:54;15.75;;;10.93;;
24813;SDS011;12904;50.088;11.414;2024-01-07T09:53:23;16.40;;;9.77;;
24813;SDS011;12904;50.088;11.414;2024-01-07T09:55:57;15.75;;;12.20;;
24813;SDS011;12904;50.088;11.414;2024-01-07T09:58:27;21.17;;;12.73;;
24813;SDS011;12904;50.088;11.414;2024-01-07T10:00:53;16.42;;;11.45;;
24813;SDS011;12904;50.088;11.414;2024-01-07T10:03:19;15.70;;;10.40;;
24813;SDS011;12904;50.088;11.414;2024-01-07T10:05:45;14.10;;;11.10;;
24813;SDS011;12904;50.088;11.414;2024-01-07T10:08:11;15.70;;;10.48;;
24813;SDS011;12904;50.088;11.414;2024-01-07T10:10:36;14.23;;;9.23;;
24813;SDS011;12904;50.088;11.414;2024-01-07T10:13:03;12.75;;;10.07;;
24813;SDS011;12904;50.088;11.414;2024-01-07T10:15:28;14.52;;;10.20;;
24813;SDS011;12904;50.088;11.414;2024-01-07T10:18:02;11.35;;;8.65;;
24813;SDS011;12904;50.088;11.414;2024-01-07T10:20:28;9.57;;;7.35;;
24813;SDS011;12904;50.088;11.414;2024-01-07T10:22:56;11.55;;;7.53;;
24813;SDS011;12904;50.088;11.414;2024-01-07T10:25:22;15.30;;;9.30;;
24813;SDS011;12904;50.088;11.414;2024-01-07T10:27:47;13.25;;;8.25;;
24813;SDS011;12904;50.088;11.414;2024-01-07T10:30:15;8.52;;;6.25;;
24813;SDS011;12904;50.088;11.414;2024-01-07T10:32:41;11.15;;;7.63;;
24813;SDS011;12904;50.088;11.414;2024-01-07T10:35:08;10.13;;;6.15;;
24813;SDS011;12904;50.088;11.414;2024-01-07T10:37:43;7.32;;;6.50;;
24813;SDS011;12904;50.088;11.414;2024-01-07T10:40:11;8.95;;;7.93;;
24813;SDS011;12904;50.088;11.414;2024-01-07T10:42:37;12.10;;;8.85;;
24813;SDS011;12904;50.088;11.414;2024-01-07T10:45:04;11.43;;;6.50;;
24813;SDS011;12904;50.088;11.414;2024-01-07T10:47:30;11.52;;;6.35;;
24813;SDS011;12904;50.088;11.414;2024-01-07T10:49:57;12.60;;;7.70;;
24813;SDS011;12904;50.088;11.414;2024-01-07T10:52:26;13.27;;;7.20;;
24813;SDS011;12904;50.088;11.414;2024-01-07T10:54:52;9.77;;;8.55;;
24813;SDS011;12904;50.088;11.414;2024-01-07T10:57:32;11.57;;;8.02;;
24813;SDS011;12904;50.088;11.414;2024-01-07T11:00:06;10.23;;;7.72;;
24813;SDS011;12904;50.088;11.414;2024-01-07T11:05:28;15.48;;;8.48;;
24813;SDS011;12904;50.088;11.414;2024-01-07T11:08:03;9.55;;;7.18;;
24813;SDS011;12904;50.088;11.414;2024-01-07T11:10:41;9.00;;;6.10;;
24813;SDS011;12904;50.088;11.414;2024-01-07T11:13:31;12.52;;;7.40;;
24813;SDS011;12904;50.088;11.414;2024-01-07T11:15:58;11.48;;;7.93;;
24813;SDS011;12904;50.088;11.414;2024-01-07T11:18:23;8.68;;;6.50;;
24813;SDS011;12904;50.088;11.414;2024-01-07T11:23:27;5.10;;;2.80;;
24813;SDS011;12904;50.088;11.414;2024-01-07T11:26:04;6.72;;;5.28;;
24813;SDS011;12904;50.088;11.414;2024-01-07T11:31:15;6.70;;;5.78;;
24813;SDS011;12904;50.088;11.414;2024-01-07T11:33:45;7.03;;;5.78;;
24813;SDS011;12904;50.088;11.414;2024-01-07T11:36:12;11.77;;;8.00;;
24813;SDS011;12904;50.088;11.414;2024-01-07T11:38:42;8.20;;;6.47;;
24813;SDS011;12904;50.088;11.414;2024-01-07T11:41:15;8.25;;;6.25;;
24813;SDS011;12904;50.088;11.414;2024-01-07T11:43:56;7.82;;;6.78;;
24813;SDS011;12904;50.088;11.414;2024-01-07T11:46:24;8.07;;;4.85;;
24813;SDS011;12904;50.088;11.414;2024-01-07T11:48:54;7.75;;;5.82;;
24813;SDS011;12904;50.088;11.414;2024-01-07T11:51:27;7.35;;;6.25;;
24813;SDS011;12904;50.088;11.414;2024-01-07T11:53:55;11.77;;;8.30;;
24813;SDS011;12904;50.088;11.414;2024-01-07T11:56:21;8.50;;;6.63;;
24813;SDS011;12904;50.088;11.414;2024-01-07T11:58:46;8.98;;;6.20;;
24813;SDS011;12904;50.088;11.414;2024-01-07T12:01:14;10.00;;;7.03;;
24813;SDS011;12904;50.088;11.414;2024-01-07T12:03:41;9.88;;;4.82;;
24813;SDS011;12904;50.088;11.414;2024-01-07T12:06:08;11.10;;;7.65;;
24813;SDS011;12904;50.088;11.414;2024-01-07T12:08:38;11.75;;;6.35;;
24813;SDS011;12904;50.088;11.414;2024-01-07T12:11:08;7.28;;;6.20;;
24813;SDS011;12904;50.088;11.414;2024-01-07T12:13:36;9.77;;;6.10;;
24813;SDS011;12904;50.088;11.414;2024-01-07T12:16:02;10.48;;;6.70;;
24813;SDS011;12904;50.088;11.414;2024-01-07T12:18:29;8.63;;;6.90;;
24813;SDS011;12904;50.088;11.414;2024-01-07T12:20:58;7.40;;;6.47;;
24813;SDS011;12904;50.088;11.414;2024-01-07T12:23:25;6.68;;;4.65;;
24813;SDS011;12904;50.088;11.414;2024-01-07T12:25:52;9.05;;;4.65;;
24813;SDS011;12904;50.088;11.414;2024-01-07T12:28:18;7.32;;;6.47;;
24813;SDS011;12904;50.088;11.414;2024-01-07T12:30:44;4.82;;;3.85;;
24813;SDS011;12904;50.088;11.414;2024-01-07T12:33:10;7.38;;;5.07;;
24813;SDS011;12904;50.088;11.414;2024-01-07T12:35:36;5.85;;;5.22;;
24813;SDS011;12904;50.088;11.414;2024-01-07T12:38:02;9.10;;;5.97;;
24813;SDS011;12904;50.088;11.414;2024-01-07T12:40:29;7.07;;;5.88;;
24813;SDS011;12904;50.088;11.414;2024-01-07T12:42:55;2.80;;;2.53;;
24813;SDS011;12904;50.088;11.414;2024-01-07T12:45:22;10.13;;;7.38;;
24813;SDS011;12904;50.088;11.414;2024-01-07T12:47:47;8.88;;;7.03;;
24813;SDS011;12904;50.088;11.414;2024-01-07T12:50:13;6.90;;;5.45;;
24813;SDS011;12904;50.088;11.414;2024-01-07T12:52:40;7.20;;;6.20;;
24813;SDS011;12904;50.088;11.414;2024-01-07T12:55:06;7.47;;;5.70;;
24813;SDS011;12904;50.088;11.414;2024-01-07T12:57:32;7.22;;;6.30;;
24813;SDS011;12904;50.088;11.414;2024-01-07T12:59:59;11.68;;;8.77;;
24813;SDS011;12904;50.088;11.414;2024-01-07T13:02:25;8.45;;;6.68;;
24813;SDS011;12904;50.088;11.414;2024-01-07T13:04:51;6.38;;;5.47;;
24813;SDS011;12904;50.088;11.414;2024-01-07T13:07:17;13.63;;;8.60;;
24813;SDS011;12904;50.088;11.414;2024-01-07T13:09:42;12.27;;;7.65;;
24813;SDS011;12904;50.088;11.414;2024-01-07T13:12:09;35.25;;;16.05;;
24813;SDS011;12904;50.088;11.414;2024-01-07T13:14:35;13.43;;;11.30;;
24813;SDS011;12904;50.088;11.414;2024-01-07T13:17:01;4.72;;;4.30;;
24813;SDS011;12904;50.088;11.414;2024-01-07T13:19:27;9.13;;;6.78;;
24813;SDS011;12904;50.088;11.414;2024-01-07T13:21:53;5.53;;;5.00;;
24813;SDS011;12904;50.088;11.414;2024-01-07T13:24:24;6.95;;;6.18;;
24813;SDS011;12904;50.088;11.414;2024-01-07T13:26:49;6.15;;;5.32;;
24813;SDS011;12904;50.088;11.414;2024-01-07T13:29:15;11.55;;;6.70;;
24813;SDS011;12904;50.088;11.414;2024-01-07T13:31:41;6.63;;;5.70;;
24813;SDS011;12904;50.088;11.414;2024-01-07T13:34:06;6.57;;;4.68;;
24813;SDS011;12904;50.088;11.414;2024-01-07T13:36:33;6.05;;;4.13;;
24813;SDS011;12904;50.088;11.414;2024-01-07T13:38:59;7.63;;;5.97;;
24813;SDS011;12904;50.088;11.414;2024-01-07T13:41:24;9.45;;;8.05;;
24813;SDS011;12904;50.088;11.414;2024-01-07T13:43:53;10.45;;;8.07;;
24813;SDS011;12904;50.088;11.414;2024-01-07T13:46:21;9.38;;;7.25;;
24813;SDS011;12904;50.088;11.414;2024-01-07T13:48:48;11.35;;;7.00;;
24813;SDS011;12904;50.088;11.414;2024-01-07T13:51:14;4.22;;;2.95;;
24813;SDS011;12904;50.088;11.414;2024-01-07T13:53:39;11.95;;;7.20;;
24813;SDS011;12904;50.088;11.414;2024-01-07T13:56:05;5.53;;;4.80;;
24813;SDS011;12904;50.088;11.414;2024-01-07T13:58:33;4.72;;;3.95;;
24813;SDS011;12904;50.088;11.414;2024-01-07T14:00:59;6.85;;;5.75;;
24813;SDS011;12904;50.088;11.414;2024-01-07T14:03:24;5.65;;;4.43;;
24813;SDS011;12904;50.088;11.414;2024-01-07T14:05:50;7.10;;;6.40;;
24813;SDS011;12904;50.088;11.414;2024-01-07T14:08:16;5.55;;;4.55;;
24813;SDS011;12904;50.088;11.414;2024-01-07T14:10:44;5.45;;;4.25;;
24813;SDS011;12904;50.088;11.414;2024-01-07T14:13:10;5.20;;;4.22;;
24813;SDS011;12904;50.088;11.414;2024-01-07T14:15:36;6.38;;;4.10;;
24813;SDS011;12904;50.088;11.414;2024-01-07T14:18:01;3.30;;;3.00;;
24813;SDS011;12904;50.088;11.414;2024-01-07T14:20:27;7.18;;;4.30;;
24813;SDS011;12904;50.088;11.414;2024-01-07T14:22:53;6.32;;;5.60;;
24813;SDS011;12904;50.088;11.414;2024-01-07T14:25:19;5.38;;;3.70;;
24813;SDS011;12904;50.088;11.414;2024-01-07T14:27:45;8.50;;;5.78;;